LIMCOSDI

Guest
Details From LIMC - Milano Malpensa
To OSDI - Damascus Intl
Flight Number -
Tags Generated
Created
Modified
Stats Distance 1,472 nm / 2,725 km
Max Altitude 0 ft / 0 m
Waypoints 6
Social Downloads 1
Likes 0
Share VATSIM

Download

Looking for another format? Having issues loading an existing format? Contact us
Advertisement - Login to hide

Notes

Generated

Route

LIMC NIKOL NEGOX ARNAS MEZ OSDI

ID Type Via Altitude Latitude Longitude Leg Dist Tot Dist Heading (true) Name
O LIMC APT - 0 ft / 0 m 45.65044˚ 8.72841˚ - 0 nm - -
NIKOL FIX - 0 ft / 0 m 44.22194˚ 13.68611˚ 227 nm 227 nm 110° / 114° -
NEGOX FIX - 0 ft / 0 m 42.43181˚ 18.82522˚ 248 nm 476 nm 114° / 117° -
ARNAS FIX - 0 ft / 0 m 40.52806˚ 23.48056˚ 238 nm 714 nm 117° / 120° -
MEZ NDB - 0 ft / 0 m 33.48333˚ 36.23333˚ 742 nm 1457 nm 121° / 128° MEZZE NDB
O OSDI APT - 0 ft / 0 m 33.41489˚ 36.50367˚ 14 nm 1471 nm 107° / 107° -

Altitude Profile

Advertisement - Login to hide

Weather


0- 5 10 15 20 25 30 35+ Temperature / ° C

Clouds and Precipitation
Forecast for 2018-05-22 12:00 UTC. Updated 3 hours ago

Ground ~20,000 ft ~40,000 ft Winds

LIMC

Details ICAO LIMC (MXP)
Name Milano Malpensa
Region Italy
Timezone Europe/Rome (UTC+2.0)
Stats Elevation 767 ft / 234 m (AMSL)
Location 45.630606° 8.728111°
Runways 2
Magnetic Variation 2.428° E

METAR

LIMC 221420Z 30006KT 8000 -RA BKN010 OVC070 17/15 Q1015 RERA NOSIG

Decode

TAF

TAF LIMC 221100Z 2212/2318 VRB05KT 7000 SCT030 BKN060 TEMPO 2212/2218 RA TEMPO 2218/2224 TSRA

Decode

Departure Runways

ID Width Length Bearing (true) Bearing (mag) Surface Threshold Offset Overrun Length
17L 197 ft / 60 m 12,869 ft / 3,923 m 169.62° 167.19° Asphalt 3,094 ft / 943 m 0 ft / 0 m
17R 197 ft / 60 m 12,869 ft / 3,923 m 169.62° 167.19° Asphalt 0 ft / 0 m 0 ft / 0 m
35L 197 ft / 60 m 12,869 ft / 3,923 m 349.62° 347.19° Asphalt 1,329 ft / 405 m 0 ft / 0 m
35R 197 ft / 60 m 12,869 ft / 3,923 m 349.62° 347.19° Asphalt 0 ft / 0 m 0 ft / 0 m

OSDI

Details ICAO OSDI (DAM)
Name DAMASCUS INTL
Region Syria
Timezone Asia/Damascus (UTC+3.0)
Stats Elevation 2,020 ft / 616 m (AMSL)
Location 33.410635° 36.514265°
Runways 2
Magnetic Variation 4.907° E

METAR

OSDI 221400Z 32002KT 9999 FEW030 SCT100 BKN200 33/02 Q1016

Decode

TAF

Not found

Destination Runways

ID Width Length Bearing (true) Bearing (mag) Surface Threshold Offset Overrun Length
05L 148 ft / 45 m 11,808 ft / 3,599 m 48.36° 43.45° Asphalt 0 ft / 0 m 197 ft / 60 m
05R 148 ft / 45 m 11,674 ft / 3,558 m 48.33° 43.42° Asphalt 0 ft / 0 m 197 ft / 60 m
23L 148 ft / 45 m 11,674 ft / 3,558 m 228.35° 223.44° Asphalt 0 ft / 0 m 197 ft / 60 m
23R 148 ft / 45 m 11,808 ft / 3,599 m 228.38° 223.47° Asphalt 0 ft / 0 m 197 ft / 60 m

Approach Navaids

Runway Type Ident Frequency Range Bearing (true) Bearing (mag) Slope Elevation
23R Localiser IDA 109.90 MHz 18 nm / 33 km 227.88° 222.97° - 2,033 ft / 620 m (AMSL)
23R Glidescope IDA 109.90 MHz 10 nm / 19 km 228.37° 223.46° 3.00° 2,033 ft / 620 m (AMSL)